Date,TemperatureHighF,TemperatureAvgF,TemperatureLowF,DewpointHighF,DewpointAvgF,DewpointLowF,HumidityHigh,HumidityAvg,HumidityLow,PressureMaxIn,PressureMinIn,WindSpeedMaxMPH,WindSpeedAvgMPH,GustSpeedMaxMPH,PrecipitationSumIn
2013-12-1,36.6,33.0,27.5,30.0,27.1,23.0,83,79,74,30.22,29.96,14,8,19,0.00
2013-12-2,38.9,33.8,28.9,33.0,30.1,27.0,91,86,78,29.96,29.85,7,3,10,0.00
2013-12-3,41.7,33.6,26.0,37.0,30.0,24.0,94,87,71,29.95,29.89,7,2,12,0.00
2013-12-4,51.0,45.1,39.5,43.0,39.5,36.0,87,81,70,29.98,29.83,19,7,23,0.00
2013-12-5,59.5,47.3,33.1,56.0,43.4,32.0,94,86,80,30.02,29.76,18,9,22,0.03
2013-12-6,32.7,28.8,23.9,31.0,26.3,22.0,95,90,83,30.29,30.01,9,4,13,0.13
2013-12-7,24.8,21.1,18.6,23.0,17.4,14.0,93,85,76,30.59,30.28,13,5,17,0.00
2013-12-8,25.3,21.4,16.4,23.0,16.9,14.0,91,83,71,30.59,30.10,17,4,24,0.00
2013-12-9,33.8,29.7,25.2,33.0,26.7,20.0,96,88,78,30.08,29.93,21,10,29,0.01
2013-12-10,25.1,21.4,18.7,20.0,14.1,6.0,90,75,48,30.16,29.96,27,10,31,0.00
2013-12-11,19.8,18.2,15.3,18.0,14.6,12.0,92,85,79,30.36,30.17,18,10,25,0.00
2013-12-12,15.5,13.0,10.4,11.0,6.3,2.0,89,75,56,30.41,30.21,18,9,27,0.00
2013-12-13,23.9,20.0,14.4,19.0,13.3,4.0,90,75,63,30.30,30.19,15,6,21,0.00
2013-12-14,29.6,25.4,20.3,28.0,23.5,17.0,95,92,86,30.29,29.65,15,4,23,0.13
2013-12-15,30.6,22.7,14.1,30.0,21.1,12.0,96,93,89,29.96,29.61,17,8,25,0.03
2013-12-16,17.4,13.8,9.7,15.0,11.4,7.0,91,90,87,30.17,29.96,11,4,15,0.00
2013-12-17,23.8,21.1,15.1,23.0,19.2,12.0,95,92,87,30.07,29.94,13,7,17,0.03
2013-12-18,25.2,23.5,21.5,22.0,20.4,16.0,93,88,78,30.13,29.99,20,9,26,0.00
2013-12-19,42.3,35.6,22.8,34.0,26.4,17.0,79,69,60,30.05,29.97,18,9,32,0.00
2013-12-20,50.0,42.0,40.0,49.0,34.9,-99.9,97,84,62,29.96,29.80,21,-22,23,0.02
2013-12-21,56.8,48.9,41.9,56.0,48.0,41.0,98,97,95,29.80,29.55,19,7,24,0.94
2013-12-22,64.3,49.8,36.5,59.0,47.5,36.0,98,92,80,29.93,29.41,31,12,45,0.19
2013-12-23,37.1,30.8,26.0,36.0,28.4,20.0,97,90,79,30.27,29.91,17,6,19,0.03
2013-12-24,25.9,18.7,14.9,23.0,16.3,13.0,93,90,81,30.50,30.22,14,6,20,0.00
2013-12-25,23.0,17.2,11.8,18.0,12.8,9.0,92,83,72,30.51,30.22,15,6,19,0.00
2013-12-26,27.0,24.6,20.9,25.0,21.7,17.0,95,88,78,30.32,30.10,21,8,26,0.00
2013-12-27,34.1,28.5,20.8,28.0,24.1,17.0,89,83,79,30.34,30.19,16,7,19,0.00
2013-12-28,45.7,39.8,33.8,33.0,30.3,28.0,80,69,62,30.19,29.99,19,11,24,0.00
2013-12-29,39.8,37.2,25.6,37.0,31.2,24.0,96,80,60,29.98,29.65,15,8,18,0.09
2013-12-30,25.2,16.5,12.9,24.0,12.8,8.0,94,85,76,30.21,29.84,13,5,20,0.00
2013-12-31,18.4,15.9,14.0,16.0,12.4,9.0,91,86,77,30.30,30.05,22,9,31,0.00